ADDS METAR Data INFO
IDs: Format: Raw Decoded Include TAF

Data at: 0903 UTC 20 Oct 2017

KMNM 200856Z AUTO 23004KT 10SM CLR 11/05 A3006 RMK AO2 SLP196 T01110050 58005 $
KMNM 200756Z AUTO 23004KT 10SM CLR 12/06 A3007 RMK AO2 SLP200 T01170056 $
KMNM 200656Z AUTO 23005KT 10SM CLR 11/06 A3007 RMK AO2 SLP201 T01110056 $
KMNM 200556Z AUTO 20003KT 10SM CLR 11/06 A3007 RMK AO2 SLP202 T01110056 10144 20111 53001 $
KMNM 200456Z AUTO 23006KT 10SM CLR 12/06 A3007 RMK AO2 SLP201 T01220056 402000078 $
KMNM 200356Z AUTO 22007KT 10SM CLR 13/05 A3007 RMK AO2 SLP201 T01280050 $
KMNM 200256Z AUTO 20004KT 10SM CLR 12/06 A3007 RMK AO2 SLP204 T01220056 51001 $
KMNM 200156Z AUTO 22004KT 10SM CLR 13/05 A3007 RMK AO2 SLP204 T01280050 $
KMNM 200056Z AUTO 22006KT 10SM CLR 13/04 A3007 RMK AO2 SLP207 T01330039 $
KMNM 192356Z AUTO 22004KT 10SM CLR 14/02 A3007 RMK AO2 SLP204 6//// T01440017 10200 20144 53003 $
KMNM 192256Z AUTO 22004KT 10SM CLR 17/01 A3007 RMK AO2 SLP201 T01720006 $
KMNM 192156Z AUTO 24004KT 10SM CLR 19/M01 A3006 RMK AO2 SLP196 T01941006 $
KMNM 192056Z AUTO 28007KT 240V310 10SM CLR 20/M02 A3006 RMK AO2 SLP196 6//// T02001017 55004 $
KMNM 191956Z AUTO 28008G16KT 240V330 10SM CLR 19/M02 A3006 RMK AO2 SLP195 T01941017 $
KMNM 191856Z AUTO 27008G14KT 10SM CLR 18/M02 A3006 RMK AO2 SLP197 T01831022 $
KMNM 191756Z AUTO 26008G15KT 230V300 10SM CLR 17/M02 A3007 RMK AO2 SLP201 T01721017 10172 20078 50001 $
KMNM 191656Z AUTO 26010KT 10SM CLR 16/M03 A3008 RMK AO2 SLP202 T01561028 $
KMNM 191556Z AUTO 29006KT 10SM CLR 14/M03 A3007 RMK AO2 SLP201 T01441028 $
KMNM 191456Z AUTO 28007KT 10SM CLR 12/M02 A3007 RMK AO2 SLP200 T01221022 51019 $
KMNM 191356Z AUTO 25006KT 10SM CLR 09/M02 A3006 RMK AO2 SLP199 T00941017 $
KMNM 191256Z AUTO 26004KT 10SM CLR 08/M03 A3004 RMK AO2 SLP193 T00781028 $
KMNM 191156Z AUTO 26004KT 10SM CLR 08/M03 A3001 RMK AO2 SLP182 T00831033 10150 20083 51021 $
KMNM 191056Z AUTO 26004KT 10SM CLR 09/M04 A2999 RMK AO2 SLP175 T00941039 $
KMNM 190956Z AUTO 25004KT 10SM CLR 10/M04 A2997 RMK AO2 SLP166 T01001044 $
KMNM 190856Z AUTO VRB03KT 10SM CLR 12/M04 A2995 RMK AO2 SLP158 T01171044 51028 $
KMNM 190756Z AUTO 30007KT 270V330 10SM CLR 13/M03 A2993 RMK AO2 SLP150 T01281033 $
KMNM 190656Z AUTO VRB03KT 10SM CLR 14/02 A2991 RMK AO2 SLP143 T01390017 $
KMNM 190556Z AUTO 27005KT 10SM CLR 15/08 A2986 RMK AO2 SLP128 T01500078 10183 20150 53015 $
KMNM 190456Z AUTO 26007KT 220V290 10SM CLR 16/08 A2984 RMK AO2 SLP121 T01610083 402060111 $
KMNM 190356Z AUTO 25007G15KT 10SM CLR 17/08 A2983 RMK AO2 SLP117 T01720083 $
KMNM 190256Z AUTO 24012G16KT 10SM CLR 18/08 A2982 RMK AO2 SLP113 T01830083 55000 $
KMNM 190156Z AUTO 23010KT 10SM CLR 18/08 A2981 RMK AO2 SLP111 T01780083 $
KMNM 190056Z AUTO 22014G18KT 10SM CLR 18/09 A2981 RMK AO2 SLP113 T01780089 $
KMNM 182356Z AUTO 21011KT 10SM CLR 18/09 A2982 RMK AO2 SLP116 T01830094 10206 20183 53003 $
KMNM 182256Z AUTO 22014KT 10SM CLR 19/09 A2981 RMK AO2 SLP111 T01940094 $
KMNM 182156Z AUTO 22014G21KT 10SM CLR 19/09 A2980 RMK AO2 SLP108 T01940094 $